CheckWX is a tool to help pilots better visualize weather data.  It is not intended as a substitute for an official pre-flight weather briefing.

21:02:38 UTC

KLAS METAR
Mc Carran International Airport
Las Vegas, Nevada, USA
Current

7 mins ago

KLAS 232056Z 19011G19KT 10SM BKN065 BKN080 OVC110 21/03 A2983 RMK AO2 SLP088 T02060033 53002
Observed
May-23 @ 20:56 UTC
Wind
  • 190° at 11 KTS
  • Gusting to 19 KTS
Visibility
10 SM
Flight Rules
VFR
Cloud Levels
  • Broken at 6,500' AGL
  • Broken at 8,000' AGL
  • Overcast at 11,000' AGL
Temperature
21°C / 70°F
Dewpoint
C / 37°F
Humidity
31%
Altimeter
29.83" Hg
Pressure
1010.12 hPa
Previous

1 hour ago

KLAS 231956Z 18015G20KT 10SM FEW060 BKN085 BKN250 19/04 A2982 RMK AO2 SLP088 T01940039
Observed
May-23 @ 19:56 UTC
Wind
  • 180° at 15 KTS
  • Gusting to 20 KTS
Visibility
10 SM
Flight Rules
VFR
Cloud Levels
  • Few at 6,000' AGL
  • Broken at 8,500' AGL
  • Broken at 25,000' AGL
Temperature
19°C / 66°F
Dewpoint
C / 39°F
Humidity
37%
Altimeter
29.82" Hg
Pressure
1009.82 hPa
Previous

2 hours ago

KLAS 231856Z 17012G19KT 10SM SCT060 BKN080 BKN250 19/04 A2982 RMK AO2 SLP087 T01890039
Observed
May-23 @ 18:56 UTC
Wind
  • 170° at 12 KTS
  • Gusting to 19 KTS
Visibility
10 SM
Flight Rules
VFR
Cloud Levels
  • Scattered at 6,000' AGL
  • Broken at 8,000' AGL
  • Broken at 25,000' AGL
Temperature
19°C / 66°F
Dewpoint
C / 39°F
Humidity
37%
Altimeter
29.82" Hg
Pressure
1009.82 hPa